sensor_id;sensor_type;location;lat;lon;timestamp;temperature;humidity
44671;DHT22;48397;53.016;-2.260;2023-02-26T00:01:41;2.80;99.90
44671;DHT22;48397;53.016;-2.260;2023-02-26T00:04:10;2.90;99.90
44671;DHT22;48397;53.016;-2.260;2023-02-26T00:06:40;2.90;99.90
44671;DHT22;48397;53.016;-2.260;2023-02-26T00:09:21;3.00;99.90
44671;DHT22;48397;53.016;-2.260;2023-02-26T00:11:50;3.00;99.90
44671;DHT22;48397;53.016;-2.260;2023-02-26T00:14:18;3.10;99.90
44671;DHT22;48397;53.016;-2.260;2023-02-26T00:16:46;3.50;99.90
44671;DHT22;48397;53.016;-2.260;2023-02-26T00:19:16;3.10;99.90
44671;DHT22;48397;53.016;-2.260;2023-02-26T00:21:44;3.20;99.90
44671;DHT22;48397;53.016;-2.260;2023-02-26T00:24:12;3.20;99.90
44671;DHT22;48397;53.016;-2.260;2023-02-26T00:26:40;3.10;99.90
44671;DHT22;48397;53.016;-2.260;2023-02-26T00:29:07;3.10;99.90
44671;DHT22;48397;53.016;-2.260;2023-02-26T00:31:35;3.10;99.90
44671;DHT22;48397;53.016;-2.260;2023-02-26T00:34:03;3.10;99.90
44671;DHT22;48397;53.016;-2.260;2023-02-26T00:44:50;3.10;99.90
44671;DHT22;48397;53.016;-2.260;2023-02-26T00:50:00;3.00;99.90
44671;DHT22;48397;53.016;-2.260;2023-02-26T00:52:56;3.10;99.90
44671;DHT22;48397;53.016;-2.260;2023-02-26T00:55:25;3.00;99.90
44671;DHT22;48397;53.016;-2.260;2023-02-26T00:57:55;2.90;99.90
44671;DHT22;48397;53.016;-2.260;2023-02-26T01:00:23;3.40;99.90
44671;DHT22;48397;53.016;-2.260;2023-02-26T01:02:51;2.90;99.90
44671;DHT22;48397;53.016;-2.260;2023-02-26T01:05:19;2.70;99.90
44671;DHT22;48397;53.016;-2.260;2023-02-26T01:14:21;2.40;99.90
44671;DHT22;48397;53.016;-2.260;2023-02-26T01:19:44;2.20;99.90
44671;DHT22;48397;53.016;-2.260;2023-02-26T01:22:37;2.30;99.90
44671;DHT22;48397;53.016;-2.260;2023-02-26T01:25:17;2.20;99.90
44671;DHT22;48397;53.016;-2.260;2023-02-26T01:27:48;2.00;99.90
44671;DHT22;48397;53.016;-2.260;2023-02-26T01:35:39;1.80;99.90
44671;DHT22;48397;53.016;-2.260;2023-02-26T01:43:21;1.90;99.90
44671;DHT22;48397;53.016;-2.260;2023-02-26T01:46:00;1.90;99.90
44671;DHT22;48397;53.016;-2.260;2023-02-26T01:48:37;2.00;99.90
44671;DHT22;48397;53.016;-2.260;2023-02-26T01:51:09;2.00;99.90
44671;DHT22;48397;53.016;-2.260;2023-02-26T01:56:17;1.90;99.90
44671;DHT22;48397;53.016;-2.260;2023-02-26T01:58:47;1.80;99.90
44671;DHT22;48397;53.016;-2.260;2023-02-26T02:01:16;1.70;99.90
44671;DHT22;48397;53.016;-2.260;2023-02-26T02:03:44;1.70;99.90
44671;DHT22;48397;53.016;-2.260;2023-02-26T02:06:20;1.70;99.90
44671;DHT22;48397;53.016;-2.260;2023-02-26T02:08:48;1.50;99.90
44671;DHT22;48397;53.016;-2.260;2023-02-26T02:11:16;1.50;99.90
44671;DHT22;48397;53.016;-2.260;2023-02-26T02:31:01;1.30;99.90
44671;DHT22;48397;53.016;-2.260;2023-02-26T02:36:50;1.20;99.90
44671;DHT22;48397;53.016;-2.260;2023-02-26T02:42:22;1.50;99.90
44671;DHT22;48397;53.016;-2.260;2023-02-26T02:44:58;1.60;99.90
44671;DHT22;48397;53.016;-2.260;2023-02-26T02:47:29;1.70;99.90
44671;DHT22;48397;53.016;-2.260;2023-02-26T02:50:12;1.70;99.90
44671;DHT22;48397;53.016;-2.260;2023-02-26T02:52:51;1.70;99.90
44671;DHT22;48397;53.016;-2.260;2023-02-26T02:55:25;1.70;99.90
44671;DHT22;48397;53.016;-2.260;2023-02-26T02:58:01;1.60;99.90
44671;DHT22;48397;53.016;-2.260;2023-02-26T03:00:33;1.50;99.90
44671;DHT22;48397;53.016;-2.260;2023-02-26T03:03:28;1.50;99.90
44671;DHT22;48397;53.016;-2.260;2023-02-26T03:05:57;1.40;99.90
44671;DHT22;48397;53.016;-2.260;2023-02-26T03:08:33;1.30;99.90
44671;DHT22;48397;53.016;-2.260;2023-02-26T03:11:01;1.20;99.90
44671;DHT22;48397;53.016;-2.260;2023-02-26T03:13:29;1.40;99.90
44671;DHT22;48397;53.016;-2.260;2023-02-26T03:21:38;1.10;99.90
44671;DHT22;48397;53.016;-2.260;2023-02-26T03:24:31;1.20;99.90
44671;DHT22;48397;53.016;-2.260;2023-02-26T03:27:15;1.40;99.90
44671;DHT22;48397;53.016;-2.260;2023-02-26T03:32:51;1.60;99.90
44671;DHT22;48397;53.016;-2.260;2023-02-26T03:35:49;1.70;99.90
44671;DHT22;48397;53.016;-2.260;2023-02-26T03:38:35;1.80;99.90
44671;DHT22;48397;53.016;-2.260;2023-02-26T03:41:13;1.90;99.90
44671;DHT22;48397;53.016;-2.260;2023-02-26T03:44:12;2.00;99.90
44671;DHT22;48397;53.016;-2.260;2023-02-26T03:46:45;2.00;99.90
44671;DHT22;48397;53.016;-2.260;2023-02-26T03:49:21;2.10;99.90
44671;DHT22;48397;53.016;-2.260;2023-02-26T03:51:52;4.30;99.90
44671;DHT22;48397;53.016;-2.260;2023-02-26T03:54:48;1.80;99.90
44671;DHT22;48397;53.016;-2.260;2023-02-26T03:57:41;2.10;99.90
44671;DHT22;48397;53.016;-2.260;2023-02-26T04:00:23;2.20;99.90
44671;DHT22;48397;53.016;-2.260;2023-02-26T04:03:01;2.00;99.90
44671;DHT22;48397;53.016;-2.260;2023-02-26T04:05:36;2.00;99.90
44671;DHT22;48397;53.016;-2.260;2023-02-26T04:08:06;1.90;99.90
44671;DHT22;48397;53.016;-2.260;2023-02-26T04:10:41;1.90;99.90
44671;DHT22;48397;53.016;-2.260;2023-02-26T04:18:06;1.80;99.90
44671;DHT22;48397;53.016;-2.260;2023-02-26T04:20:34;1.80;99.90
44671;DHT22;48397;53.016;-2.260;2023-02-26T04:23:02;1.90;99.90
44671;DHT22;48397;53.016;-2.260;2023-02-26T04:25:30;2.00;99.90
44671;DHT22;48397;53.016;-2.260;2023-02-26T04:27:59;1.90;99.90
44671;DHT22;48397;53.016;-2.260;2023-02-26T04:30:28;2.10;99.90
44671;DHT22;48397;53.016;-2.260;2023-02-26T04:32:57;2.30;99.90
44671;DHT22;48397;53.016;-2.260;2023-02-26T04:35:25;2.20;99.90
44671;DHT22;48397;53.016;-2.260;2023-02-26T04:37:56;2.30;99.90
44671;DHT22;48397;53.016;-2.260;2023-02-26T04:40:24;2.30;99.90
44671;DHT22;48397;53.016;-2.260;2023-02-26T04:45:24;2.40;99.90
44671;DHT22;48397;53.016;-2.260;2023-02-26T04:47:52;2.30;99.90
44671;DHT22;48397;53.016;-2.260;2023-02-26T04:50:20;2.40;99.90
44671;DHT22;48397;53.016;-2.260;2023-02-26T04:52:52;2.40;99.90
44671;DHT22;48397;53.016;-2.260;2023-02-26T04:55:21;2.40;99.90
44671;DHT22;48397;53.016;-2.260;2023-02-26T04:57:50;2.40;99.90
44671;DHT22;48397;53.016;-2.260;2023-02-26T05:00:23;2.40;99.90
44671;DHT22;48397;53.016;-2.260;2023-02-26T05:02:52;2.40;99.90
44671;DHT22;48397;53.016;-2.260;2023-02-26T05:05:20;2.40;99.90
44671;DHT22;48397;53.016;-2.260;2023-02-26T05:07:48;2.40;99.90
44671;DHT22;48397;53.016;-2.260;2023-02-26T05:10:16;2.50;99.90
44671;DHT22;48397;53.016;-2.260;2023-02-26T05:12:45;2.40;99.90
44671;DHT22;48397;53.016;-2.260;2023-02-26T05:15:14;2.50;99.90
44671;DHT22;48397;53.016;-2.260;2023-02-26T05:17:43;2.50;99.90
44671;DHT22;48397;53.016;-2.260;2023-02-26T05:22:39;2.50;99.90
44671;DHT22;48397;53.016;-2.260;2023-02-26T05:25:07;2.50;99.90
44671;DHT22;48397;53.016;-2.260;2023-02-26T05:30:04;2.50;99.90
44671;DHT22;48397;53.016;-2.260;2023-02-26T05:32:33;2.60;99.90
44671;DHT22;48397;53.016;-2.260;2023-02-26T05:35:01;2.50;99.90
44671;DHT22;48397;53.016;-2.260;2023-02-26T05:37:29;2.40;99.90
44671;DHT22;48397;53.016;-2.260;2023-02-26T05:39:57;2.40;99.90
44671;DHT22;48397;53.016;-2.260;2023-02-26T05:42:25;2.50;99.90
44671;DHT22;48397;53.016;-2.260;2023-02-26T05:44:53;2.30;99.90
44671;DHT22;48397;53.016;-2.260;2023-02-26T05:47:20;2.10;99.90
44671;DHT22;48397;53.016;-2.260;2023-02-26T05:49:49;2.00;99.90
44671;DHT22;48397;53.016;-2.260;2023-02-26T05:52:16;1.90;99.90
44671;DHT22;48397;53.016;-2.260;2023-02-26T05:54:44;1.90;99.90
44671;DHT22;48397;53.016;-2.260;2023-02-26T05:57:12;1.90;99.90
44671;DHT22;48397;53.016;-2.260;2023-02-26T05:59:39;1.90;99.90
44671;DHT22;48397;53.016;-2.260;2023-02-26T06:02:07;1.90;99.90
44671;DHT22;48397;53.016;-2.260;2023-02-26T06:04:35;2.10;99.90
44671;DHT22;48397;53.016;-2.260;2023-02-26T06:07:03;2.10;99.90
44671;DHT22;48397;53.016;-2.260;2023-02-26T06:09:30;2.20;99.90
44671;DHT22;48397;53.016;-2.260;2023-02-26T06:14:26;2.20;99.90
44671;DHT22;48397;53.016;-2.260;2023-02-26T06:16:54;2.20;99.90
44671;DHT22;48397;53.016;-2.260;2023-02-26T06:19:22;3.60;99.90
44671;DHT22;48397;53.016;-2.260;2023-02-26T06:21:50;2.30;99.90
44671;DHT22;48397;53.016;-2.260;2023-02-26T06:24:17;2.30;99.90
44671;DHT22;48397;53.016;-2.260;2023-02-26T06:26:45;2.30;99.90
44671;DHT22;48397;53.016;-2.260;2023-02-26T06:29:12;2.40;99.90
44671;DHT22;48397;53.016;-2.260;2023-02-26T06:31:40;2.40;99.90
44671;DHT22;48397;53.016;-2.260;2023-02-26T06:34:08;2.40;99.90
44671;DHT22;48397;53.016;-2.260;2023-02-26T06:36:35;2.40;99.90
44671;DHT22;48397;53.016;-2.260;2023-02-26T06:39:04;2.40;99.90
44671;DHT22;48397;53.016;-2.260;2023-02-26T06:41:31;2.50;99.90
44671;DHT22;48397;53.016;-2.260;2023-02-26T06:43:59;2.50;99.90
44671;DHT22;48397;53.016;-2.260;2023-02-26T06:46:29;2.50;99.90
44671;DHT22;48397;53.016;-2.260;2023-02-26T06:48:56;2.50;99.90
44671;DHT22;48397;53.016;-2.260;2023-02-26T06:53:53;2.60;99.90
44671;DHT22;48397;53.016;-2.260;2023-02-26T06:56:21;2.60;99.90
44671;DHT22;48397;53.016;-2.260;2023-02-26T06:58:50;2.60;99.90
44671;DHT22;48397;53.016;-2.260;2023-02-26T07:01:18;2.50;99.90
44671;DHT22;48397;53.016;-2.260;2023-02-26T07:06:14;2.50;99.90
44671;DHT22;48397;53.016;-2.260;2023-02-26T07:09:04;2.50;99.90
44671;DHT22;48397;53.016;-2.260;2023-02-26T07:11:32;2.50;99.90
44671;DHT22;48397;53.016;-2.260;2023-02-26T07:14:01;2.50;99.90
44671;DHT22;48397;53.016;-2.260;2023-02-26T07:16:29;2.50;99.90
44671;DHT22;48397;53.016;-2.260;2023-02-26T07:18:56;2.40;99.90
44671;DHT22;48397;53.016;-2.260;2023-02-26T07:21:24;2.50;99.90
44671;DHT22;48397;53.016;-2.260;2023-02-26T07:23:52;2.50;99.90
44671;DHT22;48397;53.016;-2.260;2023-02-26T07:26:20;2.50;99.90
44671;DHT22;48397;53.016;-2.260;2023-02-26T07:28:48;2.60;99.90
44671;DHT22;48397;53.016;-2.260;2023-02-26T07:31:16;2.60;99.90
44671;DHT22;48397;53.016;-2.260;2023-02-26T07:33:44;2.60;99.90
44671;DHT22;48397;53.016;-2.260;2023-02-26T07:36:12;2.60;99.90
44671;DHT22;48397;53.016;-2.260;2023-02-26T07:38:40;2.60;99.90
44671;DHT22;48397;53.016;-2.260;2023-02-26T07:41:08;2.60;99.90
44671;DHT22;48397;53.016;-2.260;2023-02-26T07:43:36;2.60;99.90
44671;DHT22;48397;53.016;-2.260;2023-02-26T07:46:04;2.60;99.90
44671;DHT22;48397;53.016;-2.260;2023-02-26T07:48:32;2.60;99.90
44671;DHT22;48397;53.016;-2.260;2023-02-26T07:51:00;3.50;99.90
44671;DHT22;48397;53.016;-2.260;2023-02-26T07:53:28;2.60;99.90
44671;DHT22;48397;53.016;-2.260;2023-02-26T07:58:23;2.40;99.90
44671;DHT22;48397;53.016;-2.260;2023-02-26T08:00:51;2.50;99.90
44671;DHT22;48397;53.016;-2.260;2023-02-26T08:03:19;2.50;99.90
44671;DHT22;48397;53.016;-2.260;2023-02-26T08:05:47;2.50;99.90
44671;DHT22;48397;53.016;-2.260;2023-02-26T08:08:15;2.40;99.90
44671;DHT22;48397;53.016;-2.260;2023-02-26T08:10:42;2.40;99.90
44671;DHT22;48397;53.016;-2.260;2023-02-26T08:13:10;2.40;99.90
44671;DHT22;48397;53.016;-2.260;2023-02-26T08:15:38;2.50;99.90
44671;DHT22;48397;53.016;-2.260;2023-02-26T08:18:08;2.60;99.90
44671;DHT22;48397;53.016;-2.260;2023-02-26T08:23:03;2.70;99.90
44671;DHT22;48397;53.016;-2.260;2023-02-26T08:25:32;2.80;99.90
44671;DHT22;48397;53.016;-2.260;2023-02-26T08:28:00;3.30;99.90
44671;DHT22;48397;53.016;-2.260;2023-02-26T08:30:29;3.10;99.90
44671;DHT22;48397;53.016;-2.260;2023-02-26T08:32:58;3.20;99.90
44671;DHT22;48397;53.016;-2.260;2023-02-26T08:35:25;3.30;99.90
44671;DHT22;48397;53.016;-2.260;2023-02-26T08:37:53;5.30;99.90
44671;DHT22;48397;53.016;-2.260;2023-02-26T08:40:21;3.40;99.90
44671;DHT22;48397;53.016;-2.260;2023-02-26T08:42:49;3.60;99.90
44671;DHT22;48397;53.016;-2.260;2023-02-26T08:45:17;3.60;99.90
44671;DHT22;48397;53.016;-2.260;2023-02-26T08:47:44;3.70;99.90
44671;DHT22;48397;53.016;-2.260;2023-02-26T08:50:23;3.80;99.90
44671;DHT22;48397;53.016;-2.260;2023-02-26T08:52:51;3.80;99.90
44671;DHT22;48397;53.016;-2.260;2023-02-26T08:55:20;3.90;99.90
44671;DHT22;48397;53.016;-2.260;2023-02-26T08:57:48;3.90;99.90
44671;DHT22;48397;53.016;-2.260;2023-02-26T09:00:16;3.80;99.90
44671;DHT22;48397;53.016;-2.260;2023-02-26T09:02:45;3.80;99.90
44671;DHT22;48397;53.016;-2.260;2023-02-26T09:05:13;3.80;99.90
44671;DHT22;48397;53.016;-2.260;2023-02-26T09:07:44;3.80;99.90
44671;DHT22;48397;53.016;-2.260;2023-02-26T09:10:12;6.50;99.90
44671;DHT22;48397;53.016;-2.260;2023-02-26T09:12:39;3.80;99.90
44671;DHT22;48397;53.016;-2.260;2023-02-26T09:15:09;4.00;99.90
44671;DHT22;48397;53.016;-2.260;2023-02-26T09:17:37;4.10;99.90
44671;DHT22;48397;53.016;-2.260;2023-02-26T09:20:05;4.10;99.90
44671;DHT22;48397;53.016;-2.260;2023-02-26T09:22:34;3.80;99.90
44671;DHT22;48397;53.016;-2.260;2023-02-26T09:25:03;4.40;99.90
44671;DHT22;48397;53.016;-2.260;2023-02-26T09:27:31;4.50;99.90
44671;DHT22;48397;53.016;-2.260;2023-02-26T09:29:59;4.60;99.90
44671;DHT22;48397;53.016;-2.260;2023-02-26T09:32:27;4.70;99.90
44671;DHT22;48397;53.016;-2.260;2023-02-26T09:34:55;4.70;99.90
44671;DHT22;48397;53.016;-2.260;2023-02-26T09:37:22;4.80;99.90
44671;DHT22;48397;53.016;-2.260;2023-02-26T09:39:50;4.70;99.90
44671;DHT22;48397;53.016;-2.260;2023-02-26T09:45:01;4.60;99.90
44671;DHT22;48397;53.016;-2.260;2023-02-26T09:47:42;4.60;99.90
44671;DHT22;48397;53.016;-2.260;2023-02-26T09:50:27;4.70;99.90
44671;DHT22;48397;53.016;-2.260;2023-02-26T09:53:04;4.70;99.90
44671;DHT22;48397;53.016;-2.260;2023-02-26T09:55:42;4.80;99.90
44671;DHT22;48397;53.016;-2.260;2023-02-26T09:58:37;4.80;99.90
44671;DHT22;48397;53.016;-2.260;2023-02-26T10:07:32;5.10;99.90
44671;DHT22;48397;53.016;-2.260;2023-02-26T10:12:48;5.50;99.90
44671;DHT22;48397;53.016;-2.260;2023-02-26T10:15:31;5.50;99.90
44671;DHT22;48397;53.016;-2.260;2023-02-26T10:18:12;5.80;99.90
44671;DHT22;48397;53.016;-2.260;2023-02-26T10:20:54;5.90;99.90
44671;DHT22;48397;53.016;-2.260;2023-02-26T10:23:28;6.00;99.90
44671;DHT22;48397;53.016;-2.260;2023-02-26T10:26:04;6.20;99.90
44671;DHT22;48397;53.016;-2.260;2023-02-26T10:28:47;6.40;99.90
44671;DHT22;48397;53.016;-2.260;2023-02-26T10:31:21;6.50;99.90
44671;DHT22;48397;53.016;-2.260;2023-02-26T10:34:01;6.50;99.90
44671;DHT22;48397;53.016;-2.260;2023-02-26T10:39:43;6.60;99.90
44671;DHT22;48397;53.016;-2.260;2023-02-26T10:42:20;6.70;99.90
44671;DHT22;48397;53.016;-2.260;2023-02-26T10:44:50;6.70;99.90
44671;DHT22;48397;53.016;-2.260;2023-02-26T10:47:25;6.80;99.90
44671;DHT22;48397;53.016;-2.260;2023-02-26T10:50:05;6.90;99.90
44671;DHT22;48397;53.016;-2.260;2023-02-26T10:52:34;6.80;99.90
44671;DHT22;48397;53.016;-2.260;2023-02-26T10:57:50;6.90;99.90
44671;DHT22;48397;53.016;-2.260;2023-02-26T11:00:21;6.90;99.90
44671;DHT22;48397;53.016;-2.260;2023-02-26T11:02:50;7.00;99.90
44671;DHT22;48397;53.016;-2.260;2023-02-26T11:05:29;7.00;99.90
44671;DHT22;48397;53.016;-2.260;2023-02-26T11:08:03;7.00;99.90
44671;DHT22;48397;53.016;-2.260;2023-02-26T11:10:47;7.00;99.90
44671;DHT22;48397;53.016;-2.260;2023-02-26T11:13:17;7.00;99.90
44671;DHT22;48397;53.016;-2.260;2023-02-26T11:15:51;7.00;99.90
44671;DHT22;48397;53.016;-2.260;2023-02-26T11:18:36;7.10;99.90
44671;DHT22;48397;53.016;-2.260;2023-02-26T11:21:06;7.20;99.90
44671;DHT22;48397;53.016;-2.260;2023-02-26T11:23:34;7.40;99.90
44671;DHT22;48397;53.016;-2.260;2023-02-26T11:26:07;7.70;99.90
44671;DHT22;48397;53.016;-2.260;2023-02-26T11:28:50;7.90;99.90
44671;DHT22;48397;53.016;-2.260;2023-02-26T11:31:22;8.00;99.90
44671;DHT22;48397;53.016;-2.260;2023-02-26T11:33:53;8.10;99.90
44671;DHT22;48397;53.016;-2.260;2023-02-26T11:36:25;8.10;99.90
44671;DHT22;48397;53.016;-2.260;2023-02-26T11:39:23;8.30;99.90
44671;DHT22;48397;53.016;-2.260;2023-02-26T11:41:52;8.30;99.90
44671;DHT22;48397;53.016;-2.260;2023-02-26T11:44:54;8.50;99.90
44671;DHT22;48397;53.016;-2.260;2023-02-26T11:47:27;8.40;99.90
44671;DHT22;48397;53.016;-2.260;2023-02-26T11:50:00;8.40;99.90
44671;DHT22;48397;53.016;-2.260;2023-02-26T11:52:39;8.30;99.90
44671;DHT22;48397;53.016;-2.260;2023-02-26T11:55:21;8.30;99.90
44671;DHT22;48397;53.016;-2.260;2023-02-26T11:57:53;8.40;99.90
44671;DHT22;48397;53.016;-2.260;2023-02-26T12:00:30;8.40;99.90
44671;DHT22;48397;53.016;-2.260;2023-02-26T12:03:04;8.50;99.90
44671;DHT22;48397;53.016;-2.260;2023-02-26T12:05:35;8.60;99.90
44671;DHT22;48397;53.016;-2.260;2023-02-26T12:08:13;8.60;99.90
44671;DHT22;48397;53.016;-2.260;2023-02-26T12:10:51;8.60;99.90
44671;DHT22;48397;53.016;-2.260;2023-02-26T12:16:24;8.60;99.90
44671;DHT22;48397;53.016;-2.260;2023-02-26T12:27:53;8.40;99.90
44671;DHT22;48397;53.016;-2.260;2023-02-26T12:30:25;8.40;99.90
44671;DHT22;48397;53.016;-2.260;2023-02-26T12:58:50;9.70;99.90
44671;DHT22;48397;53.016;-2.260;2023-02-26T13:04:41;9.60;99.90
44671;DHT22;48397;53.016;-2.260;2023-02-26T13:21:12;9.10;99.90
44671;DHT22;48397;53.016;-2.260;2023-02-26T13:23:54;9.00;99.90
44671;DHT22;48397;53.016;-2.260;2023-02-26T13:26:25;8.90;99.90
44671;DHT22;48397;53.016;-2.260;2023-02-26T13:31:43;8.80;99.90
44671;DHT22;48397;53.016;-2.260;2023-02-26T13:34:33;9.00;99.90
44671;DHT22;48397;53.016;-2.260;2023-02-26T13:37:03;9.00;99.90
44671;DHT22;48397;53.016;-2.260;2023-02-26T13:39:35;9.40;99.90
44671;DHT22;48397;53.016;-2.260;2023-02-26T13:44:54;9.40;99.90
44671;DHT22;48397;53.016;-2.260;2023-02-26T13:52:55;9.40;99.90
44671;DHT22;48397;53.016;-2.260;2023-02-26T13:55:54;9.30;99.90
44671;DHT22;48397;53.016;-2.260;2023-02-26T13:58:41;9.00;99.90
44671;DHT22;48397;53.016;-2.260;2023-02-26T14:01:26;8.90;99.90
44671;DHT22;48397;53.016;-2.260;2023-02-26T14:06:45;8.90;99.90
44671;DHT22;48397;53.016;-2.260;2023-02-26T14:14:42;9.40;99.90
44671;DHT22;48397;53.016;-2.260;2023-02-26T14:25:09;9.00;99.90
44671;DHT22;48397;53.016;-2.260;2023-02-26T14:27:42;9.00;99.90
44671;DHT22;48397;53.016;-2.260;2023-02-26T14:32:53;8.70;99.90
44671;DHT22;48397;53.016;-2.260;2023-02-26T14:35:49;8.70;99.90
44671;DHT22;48397;53.016;-2.260;2023-02-26T14:38:24;8.70;99.90
44671;DHT22;48397;53.016;-2.260;2023-02-26T14:40:57;8.60;99.90
44671;DHT22;48397;53.016;-2.260;2023-02-26T14:43:37;8.50;99.90
44671;DHT22;48397;53.016;-2.260;2023-02-26T14:46:07;8.50;99.90
44671;DHT22;48397;53.016;-2.260;2023-02-26T14:48:38;8.70;99.90
44671;DHT22;48397;53.016;-2.260;2023-02-26T14:54:19;8.80;99.90
44671;DHT22;48397;53.016;-2.260;2023-02-26T14:56:55;8.90;99.90
44671;DHT22;48397;53.016;-2.260;2023-02-26T15:13:14;9.50;99.90
44671;DHT22;48397;53.016;-2.260;2023-02-26T15:15:55;9.20;99.90
44671;DHT22;48397;53.016;-2.260;2023-02-26T15:23:58;8.40;99.90
44671;DHT22;48397;53.016;-2.260;2023-02-26T15:26:31;8.40;99.90
44671;DHT22;48397;53.016;-2.260;2023-02-26T15:29:03;8.60;99.90
44671;DHT22;48397;53.016;-2.260;2023-02-26T15:31:39;8.90;99.90
44671;DHT22;48397;53.016;-2.260;2023-02-26T15:34:14;9.30;99.90
44671;DHT22;48397;53.016;-2.260;2023-02-26T15:36:46;9.50;99.90
44671;DHT22;48397;53.016;-2.260;2023-02-26T15:39:19;9.50;99.90
44671;DHT22;48397;53.016;-2.260;2023-02-26T15:41:51;9.30;99.90
44671;DHT22;48397;53.016;-2.260;2023-02-26T15:44:27;9.10;99.90
44671;DHT22;48397;53.016;-2.260;2023-02-26T15:47:01;8.80;99.90
44671;DHT22;48397;53.016;-2.260;2023-02-26T15:49:42;8.60;99.90
44671;DHT22;48397;53.016;-2.260;2023-02-26T15:52:15;8.80;99.90
44671;DHT22;48397;53.016;-2.260;2023-02-26T15:54:51;9.10;99.90
44671;DHT22;48397;53.016;-2.260;2023-02-26T15:57:21;9.50;99.90
44671;DHT22;48397;53.016;-2.260;2023-02-26T15:59:53;10.20;99.90
44671;DHT22;48397;53.016;-2.260;2023-02-26T16:02:26;10.80;99.90
44671;DHT22;48397;53.016;-2.260;2023-02-26T16:04:55;10.80;99.90
44671;DHT22;48397;53.016;-2.260;2023-02-26T16:07:22;11.00;99.90
44671;DHT22;48397;53.016;-2.260;2023-02-26T16:09:53;10.80;99.90
44671;DHT22;48397;53.016;-2.260;2023-02-26T16:12:34;10.70;99.90
44671;DHT22;48397;53.016;-2.260;2023-02-26T16:15:11;10.60;99.90
44671;DHT22;48397;53.016;-2.260;2023-02-26T16:17:42;10.40;99.90
44671;DHT22;48397;53.016;-2.260;2023-02-26T16:20:19;10.40;99.90
44671;DHT22;48397;53.016;-2.260;2023-02-26T16:22:53;10.30;99.90
44671;DHT22;48397;53.016;-2.260;2023-02-26T16:28:03;10.10;99.90
44671;DHT22;48397;53.016;-2.260;2023-02-26T16:30:36;10.10;99.90
44671;DHT22;48397;53.016;-2.260;2023-02-26T16:33:12;10.10;99.90
44671;DHT22;48397;53.016;-2.260;2023-02-26T16:35:55;10.10;99.90
44671;DHT22;48397;53.016;-2.260;2023-02-26T16:38:26;10.10;99.90
44671;DHT22;48397;53.016;-2.260;2023-02-26T16:41:05;10.10;99.90
44671;DHT22;48397;53.016;-2.260;2023-02-26T16:46:20;10.00;99.90
44671;DHT22;48397;53.016;-2.260;2023-02-26T16:52:04;9.30;99.90
44671;DHT22;48397;53.016;-2.260;2023-02-26T16:54:40;9.00;99.90
44671;DHT22;48397;53.016;-2.260;2023-02-26T16:57:39;8.70;99.90
44671;DHT22;48397;53.016;-2.260;2023-02-26T17:00:12;8.40;99.90
44671;DHT22;48397;53.016;-2.260;2023-02-26T17:02:45;8.40;99.90
44671;DHT22;48397;53.016;-2.260;2023-02-26T17:05:22;7.90;99.90
44671;DHT22;48397;53.016;-2.260;2023-02-26T17:08:13;7.70;99.90
44671;DHT22;48397;53.016;-2.260;2023-02-26T17:10:48;7.60;99.90
44671;DHT22;48397;53.016;-2.260;2023-02-26T17:13:30;7.40;99.90
44671;DHT22;48397;53.016;-2.260;2023-02-26T17:16:01;7.20;99.90
44671;DHT22;48397;53.016;-2.260;2023-02-26T17:18:31;6.90;99.90
44671;DHT22;48397;53.016;-2.260;2023-02-26T17:21:00;6.80;99.90
44671;DHT22;48397;53.016;-2.260;2023-02-26T17:23:35;6.60;99.90
44671;DHT22;48397;53.016;-2.260;2023-02-26T17:26:04;6.40;99.90
44671;DHT22;48397;53.016;-2.260;2023-02-26T17:28:36;6.20;99.90
44671;DHT22;48397;53.016;-2.260;2023-02-26T17:31:09;6.10;99.90
44671;DHT22;48397;53.016;-2.260;2023-02-26T17:33:40;6.00;99.90
44671;DHT22;48397;53.016;-2.260;2023-02-26T17:36:13;5.90;99.90
44671;DHT22;48397;53.016;-2.260;2023-02-26T17:38:41;5.70;99.90
44671;DHT22;48397;53.016;-2.260;2023-02-26T17:41:15;5.60;99.90
44671;DHT22;48397;53.016;-2.260;2023-02-26T17:43:46;5.50;99.90
44671;DHT22;48397;53.016;-2.260;2023-02-26T17:46:19;5.30;99.90
44671;DHT22;48397;53.016;-2.260;2023-02-26T17:48:47;5.30;99.90
44671;DHT22;48397;53.016;-2.260;2023-02-26T17:51:15;5.10;99.90
44671;DHT22;48397;53.016;-2.260;2023-02-26T17:53:43;5.10;99.90
44671;DHT22;48397;53.016;-2.260;2023-02-26T17:56:28;4.90;99.90
44671;DHT22;48397;53.016;-2.260;2023-02-26T17:58:57;4.80;99.90
44671;DHT22;48397;53.016;-2.260;2023-02-26T18:01:25;4.70;99.90
44671;DHT22;48397;53.016;-2.260;2023-02-26T18:06:33;4.50;99.90
44671;DHT22;48397;53.016;-2.260;2023-02-26T18:09:02;4.40;99.90
44671;DHT22;48397;53.016;-2.260;2023-02-26T18:11:33;4.30;99.90
44671;DHT22;48397;53.016;-2.260;2023-02-26T18:14:01;4.30;99.90
44671;DHT22;48397;53.016;-2.260;2023-02-26T18:16:41;4.20;99.90
44671;DHT22;48397;53.016;-2.260;2023-02-26T18:19:13;4.10;99.90
44671;DHT22;48397;53.016;-2.260;2023-02-26T18:21:41;4.10;99.90
44671;DHT22;48397;53.016;-2.260;2023-02-26T18:24:11;4.00;99.90
44671;DHT22;48397;53.016;-2.260;2023-02-26T18:26:39;4.00;99.90
44671;DHT22;48397;53.016;-2.260;2023-02-26T18:29:10;3.80;99.90
44671;DHT22;48397;53.016;-2.260;2023-02-26T18:31:38;3.70;99.90
44671;DHT22;48397;53.016;-2.260;2023-02-26T18:34:07;3.70;99.90
44671;DHT22;48397;53.016;-2.260;2023-02-26T18:36:35;3.50;99.90
44671;DHT22;48397;53.016;-2.260;2023-02-26T18:39:10;3.40;99.90
44671;DHT22;48397;53.016;-2.260;2023-02-26T18:41:38;3.40;99.90
44671;DHT22;48397;53.016;-2.260;2023-02-26T18:44:06;3.30;99.90
44671;DHT22;48397;53.016;-2.260;2023-02-26T18:46:35;3.20;99.90
44671;DHT22;48397;53.016;-2.260;2023-02-26T18:49:16;3.20;99.90
44671;DHT22;48397;53.016;-2.260;2023-02-26T18:51:44;3.10;99.90
44671;DHT22;48397;53.016;-2.260;2023-02-26T18:54:15;3.10;99.90
44671;DHT22;48397;53.016;-2.260;2023-02-26T18:56:43;3.10;99.90
44671;DHT22;48397;53.016;-2.260;2023-02-26T18:59:13;3.00;99.90
44671;DHT22;48397;53.016;-2.260;2023-02-26T19:01:41;3.00;99.90
44671;DHT22;48397;53.016;-2.260;2023-02-26T19:06:41;2.90;99.90
44671;DHT22;48397;53.016;-2.260;2023-02-26T19:09:15;2.90;99.90
44671;DHT22;48397;53.016;-2.260;2023-02-26T19:14:11;2.80;99.90
44671;DHT22;48397;53.016;-2.260;2023-02-26T19:16:40;2.70;99.90
44671;DHT22;48397;53.016;-2.260;2023-02-26T19:19:10;2.70;99.90
44671;DHT22;48397;53.016;-2.260;2023-02-26T19:21:40;2.60;99.90
44671;DHT22;48397;53.016;-2.260;2023-02-26T19:24:11;2.50;99.90
44671;DHT22;48397;53.016;-2.260;2023-02-26T19:26:41;2.50;99.90
44671;DHT22;48397;53.016;-2.260;2023-02-26T19:29:14;2.40;99.90
44671;DHT22;48397;53.016;-2.260;2023-02-26T19:31:42;2.30;99.90
44671;DHT22;48397;53.016;-2.260;2023-02-26T19:34:12;2.30;99.90
44671;DHT22;48397;53.016;-2.260;2023-02-26T19:36:41;2.30;99.90
44671;DHT22;48397;53.016;-2.260;2023-02-26T19:39:16;2.30;99.90
44671;DHT22;48397;53.016;-2.260;2023-02-26T19:41:46;2.20;99.90
44671;DHT22;48397;53.016;-2.260;2023-02-26T19:44:21;2.10;99.90
44671;DHT22;48397;53.016;-2.260;2023-02-26T19:46:50;2.00;99.90
44671;DHT22;48397;53.016;-2.260;2023-02-26T19:49:20;1.90;99.90
44671;DHT22;48397;53.016;-2.260;2023-02-26T19:51:50;1.80;99.90
44671;DHT22;48397;53.016;-2.260;2023-02-26T19:54:19;1.80;99.90